createdAt,value
2023-01-20T00:01:28.451Z,98970.16
2023-01-20T00:04:06.901Z,98982.75
2023-01-20T00:06:45.009Z,98986.69
2023-01-20T00:09:18.234Z,98981.38
2023-01-20T00:12:02.664Z,98965.66
2023-01-20T00:14:43.128Z,98969.56
2023-01-20T00:17:21.346Z,98975.53
2023-01-20T00:19:58.951Z,98975.97
2023-01-20T00:22:34.328Z,98980.41
2023-01-20T00:25:09.546Z,98984.06
2023-01-20T00:27:50.466Z,98991.16
2023-01-20T00:30:34.298Z,98997.72
2023-01-20T00:33:15.155Z,99003.19
2023-01-20T00:35:52.916Z,99007.66
2023-01-20T00:38:29.565Z,99007.06
2023-01-20T00:41:07.288Z,99005.19
2023-01-20T00:43:53.286Z,99005.66
2023-01-20T00:46:29.207Z,99010.81
2023-01-20T00:49:06.960Z,99018.56
2023-01-20T00:51:55.543Z,99021.69
2023-01-20T00:54:33.910Z,99015.63
2023-01-20T00:57:14.558Z,99025.38
2023-01-20T01:00:03.871Z,99023.97
2023-01-20T01:02:50.703Z,99013.28
2023-01-20T01:05:32.187Z,99020.78
2023-01-20T01:08:16.354Z,99023.28
2023-01-20T01:10:55.042Z,99022.03
2023-01-20T01:13:38.574Z,99015.94
2023-01-20T01:16:19.434Z,99011.34
2023-01-20T01:19:06.938Z,98998.47
2023-01-20T01:21:50.326Z,98990.88
2023-01-20T01:24:32.312Z,98990.88
2023-01-20T01:27:09.697Z,98983.41
2023-01-20T01:29:41.555Z,98979.28
2023-01-20T01:32:21.915Z,98980.69
2023-01-20T01:34:56.557Z,98980.13
2023-01-20T01:37:33.842Z,98966.22
2023-01-20T01:40:13.643Z,98967.81
2023-01-20T01:42:49.406Z,98963.25
2023-01-20T01:45:33.250Z,98961.94
2023-01-20T01:48:14.201Z,98961.78
2023-01-20T01:51:41.757Z,98962.13
2023-01-20T01:54:38.785Z,98960.84
2023-01-20T01:57:11.969Z,98962.47
2023-01-20T01:59:52.331Z,98954.16
2023-01-20T02:02:27.517Z,98951.09
2023-01-20T02:05:11.728Z,98948.66
2023-01-20T02:07:52.016Z,98957.41
2023-01-20T02:10:24.283Z,98951.25
2023-01-20T02:13:17.103Z,98945.31
2023-01-20T02:16:02.254Z,98950.06
2023-01-20T02:19:07.624Z,98951.84
2023-01-20T02:21:55.480Z,98938.06
2023-01-20T02:24:54.478Z,98938.38
2023-01-20T02:27:33.595Z,98938.19
2023-01-20T02:30:22.662Z,98948.97
2023-01-20T02:33:26.974Z,98949.13
2023-01-20T02:36:04.603Z,98947.03
2023-01-20T02:39:01.153Z,98946.16
2023-01-20T02:42:08.342Z,98948.72
2023-01-20T02:44:59.437Z,98953.81
2023-01-20T02:47:51.569Z,98951.00
2023-01-20T02:50:43.368Z,98955.09
2023-01-20T02:53:26.570Z,98953.97
2023-01-20T02:56:04.953Z,98956.41
2023-01-20T02:58:55.662Z,98961.72
2023-01-20T03:01:36.717Z,98953.75
2023-01-20T03:04:14.175Z,98956.16
2023-01-20T03:06:54.148Z,98961.22
2023-01-20T03:09:33.180Z,98967.72
2023-01-20T03:12:21.227Z,98980.22
2023-01-20T03:14:55.515Z,98976.66
2023-01-20T03:17:37.574Z,98982.28
2023-01-20T03:20:12.856Z,98968.72
2023-01-20T03:22:47.889Z,98978.13
2023-01-20T03:25:28.159Z,98970.38
2023-01-20T03:28:06.229Z,98974.28
2023-01-20T03:30:41.950Z,98982.06
2023-01-20T03:33:20.534Z,98979.72
2023-01-20T03:35:54.828Z,98992.63
2023-01-20T03:38:30.063Z,98997.13
2023-01-20T03:41:48.568Z,98996.88
2023-01-20T03:44:56.008Z,98985.22
2023-01-20T03:47:53.507Z,98982.19
2023-01-20T03:50:34.803Z,98987.22
2023-01-20T03:53:45.531Z,98985.50
2023-01-20T03:56:32.968Z,98994.59
2023-01-20T03:59:10.048Z,98985.72
2023-01-20T04:01:44.721Z,98972.28
2023-01-20T04:04:24.356Z,98974.97
2023-01-20T04:07:02.723Z,98970.03
2023-01-20T04:09:38.241Z,98973.03
2023-01-20T04:12:13.285Z,98969.78
2023-01-20T04:15:00.523Z,98971.44
2023-01-20T04:17:33.974Z,98963.28
2023-01-20T04:20:12.003Z,98971.38
2023-01-20T04:23:00.027Z,98965.22
2023-01-20T04:25:39.936Z,98965.03
2023-01-20T04:28:14.986Z,98967.16
2023-01-20T04:30:55.715Z,98971.41
2023-01-20T04:33:33.959Z,98972.69
2023-01-20T04:36:08.972Z,98972.94
2023-01-20T04:38:47.484Z,98984.31
2023-01-20T04:41:26.451Z,98977.63
2023-01-20T04:44:02.046Z,98979.94
2023-01-20T04:46:32.280Z,98983.34
2023-01-20T04:49:10.413Z,98990.75
2023-01-20T04:51:49.111Z,98977.81
2023-01-20T04:54:21.621Z,98983.94
2023-01-20T04:56:54.627Z,98980.09
2023-01-20T04:59:33.180Z,98979.28
2023-01-20T05:02:07.035Z,98980.22
2023-01-20T05:04:47.418Z,98978.22
2023-01-20T05:07:29.481Z,98976.97
2023-01-20T05:10:01.903Z,98968.25
2023-01-20T05:12:34.181Z,98957.56
2023-01-20T05:15:07.925Z,98949.38
2023-01-20T05:17:45.734Z,98937.25
2023-01-20T05:20:27.185Z,98939.22
2023-01-20T05:23:10.984Z,98931.94
2023-01-20T05:25:56.101Z,98922.97
2023-01-20T05:28:30.217Z,98922.34
2023-01-20T05:31:02.835Z,98914.25
2023-01-20T05:33:38.522Z,98909.66
2023-01-20T05:36:14.900Z,98909.31
2023-01-20T05:38:52.800Z,98905.88
2023-01-20T05:41:30.721Z,98921.97
2023-01-20T05:44:02.692Z,98929.06
2023-01-20T05:46:39.845Z,98935.94
2023-01-20T05:49:14.753Z,98935.03
2023-01-20T05:51:58.206Z,98937.22
2023-01-20T05:54:38.687Z,98937.31
2023-01-20T05:57:19.808Z,98929.72
2023-01-20T05:59:57.996Z,98919.97
2023-01-20T06:02:36.454Z,98925.88
2023-01-20T06:05:20.520Z,98932.09
2023-01-20T06:07:57.540Z,98931.38
2023-01-20T06:10:35.779Z,98924.28
2023-01-20T06:13:16.700Z,98939.91
2023-01-20T06:15:55.226Z,98950.56
2023-01-20T06:18:30.580Z,98952.78
2023-01-20T06:21:04.187Z,98948.81
2023-01-20T06:23:39.589Z,98957.19
2023-01-20T06:26:20.602Z,98959.19
2023-01-20T06:29:07.183Z,98960.69
2023-01-20T06:31:42.021Z,98954.25
2023-01-20T06:34:25.823Z,98945.34
2023-01-20T06:37:02.397Z,98947.22
2023-01-20T06:39:42.765Z,98942.81
2023-01-20T06:42:24.415Z,98939.63
2023-01-20T06:45:00.164Z,98941.47
2023-01-20T06:47:40.727Z,98945.75
2023-01-20T06:50:19.252Z,98944.00
2023-01-20T06:53:10.074Z,98952.94
2023-01-20T06:55:53.393Z,98946.97
2023-01-20T06:58:30.314Z,98954.25
2023-01-20T07:01:24.217Z,98945.50
2023-01-20T07:04:01.780Z,98946.81
2023-01-20T07:06:59.921Z,98962.25
2023-01-20T07:09:38.492Z,98965.91
2023-01-20T07:12:12.753Z,98975.75
2023-01-20T07:14:46.651Z,98977.31
2023-01-20T07:17:25.068Z,98979.34
2023-01-20T07:20:05.602Z,98986.78
2023-01-20T07:22:47.290Z,98986.41
2023-01-20T07:25:19.823Z,98991.38
2023-01-20T07:27:57.970Z,98985.94
2023-01-20T07:30:38.366Z,98989.34
2023-01-20T07:33:15.740Z,98992.28
2023-01-20T07:36:02.501Z,98994.22
2023-01-20T07:38:41.667Z,98993.56
2023-01-20T07:41:27.926Z,98996.69
2023-01-20T07:44:05.511Z,98997.97
2023-01-20T07:46:34.987Z,98991.72
2023-01-20T07:49:12.213Z,98994.19
2023-01-20T07:51:53.660Z,99001.44
2023-01-20T07:54:42.007Z,99001.28
2023-01-20T07:57:25.077Z,98998.50
2023-01-20T08:00:09.061Z,99002.84
2023-01-20T08:02:42.737Z,99004.59
2023-01-20T08:05:23.999Z,99004.22
2023-01-20T08:08:04.480Z,99013.13
2023-01-20T08:10:47.870Z,99015.22
2023-01-20T08:13:22.675Z,99017.66
2023-01-20T08:16:01.397Z,99013.22
2023-01-20T08:18:39.696Z,99012.03
2023-01-20T08:21:20.486Z,99014.88
2023-01-20T08:24:06.757Z,99016.69
2023-01-20T08:26:44.917Z,99014.22
2023-01-20T08:29:16.879Z,99015.78
2023-01-20T08:31:44.849Z,99020.03
2023-01-20T08:34:18.938Z,99010.34
2023-01-20T08:36:56.645Z,99010.84
2023-01-20T08:39:35.548Z,99007.13
2023-01-20T08:42:08.847Z,99021.78
2023-01-20T08:44:38.329Z,99024.97
2023-01-20T08:47:21.026Z,99025.16
2023-01-20T08:49:54.127Z,99021.75
2023-01-20T08:52:35.541Z,99027.34
2023-01-20T08:55:13.592Z,99027.44
2023-01-20T08:57:49.887Z,99020.38
2023-01-20T09:00:28.373Z,99023.28
2023-01-20T09:03:03.453Z,99026.16
2023-01-20T09:05:50.196Z,99028.28
2023-01-20T09:08:27.140Z,99034.34
2023-01-20T09:11:10.936Z,99034.56
2023-01-20T09:13:43.306Z,99026.84
2023-01-20T09:16:20.748Z,99032.50
2023-01-20T09:19:03.267Z,99028.47
2023-01-20T09:21:41.215Z,99029.28
2023-01-20T09:24:30.330Z,99030.75
2023-01-20T09:27:19.742Z,99019.53
2023-01-20T09:29:55.059Z,99024.22
2023-01-20T09:32:36.246Z,99021.13
2023-01-20T09:35:11.783Z,99011.09
2023-01-20T09:38:05.252Z,99000.88
2023-01-20T09:41:43.629Z,98995.56
2023-01-20T09:44:35.366Z,98978.63
2023-01-20T09:47:20.738Z,98977.63
2023-01-20T09:50:47.340Z,98977.31
2023-01-20T09:53:48.742Z,98973.13
2023-01-20T09:56:25.033Z,98971.50
2023-01-20T09:59:21.211Z,98962.34
2023-01-20T10:02:03.538Z,98950.91
2023-01-20T10:05:07.877Z,98945.97
2023-01-20T10:07:53.942Z,98943.09
2023-01-20T10:10:30.609Z,98942.81
2023-01-20T10:13:11.513Z,98926.91
2023-01-20T10:16:12.548Z,98919.16
2023-01-20T10:18:58.366Z,98913.53
2023-01-20T10:21:53.140Z,98905.28
2023-01-20T10:24:29.599Z,98894.03
2023-01-20T10:27:13.488Z,98891.53
2023-01-20T10:30:02.643Z,98897.16
2023-01-20T10:32:42.293Z,98904.09
2023-01-20T10:35:27.635Z,98915.81
2023-01-20T10:38:09.355Z,98924.56
2023-01-20T10:41:03.468Z,98924.19
2023-01-20T10:43:41.330Z,98919.16
2023-01-20T10:46:30.450Z,98920.88
2023-01-20T10:49:53.639Z,98928.34
2023-01-20T10:52:39.005Z,98918.53
2023-01-20T10:55:40.899Z,98918.44
2023-01-20T10:58:26.768Z,98927.13
2023-01-20T11:00:55.730Z,98924.13
2023-01-20T11:03:42.792Z,98924.25
2023-01-20T11:06:47.301Z,98933.97
2023-01-20T11:09:49.747Z,98926.78
2023-01-20T11:12:34.291Z,98928.31
2023-01-20T11:15:36.119Z,98934.06
2023-01-20T11:18:18.199Z,98932.59
2023-01-20T11:20:56.377Z,98921.72
2023-01-20T11:23:52.434Z,98930.84
2023-01-20T11:26:35.734Z,98914.97
2023-01-20T11:29:20.235Z,98910.59
2023-01-20T11:32:00.905Z,98896.41
2023-01-20T11:34:38.981Z,98894.63
2023-01-20T11:37:11.570Z,98892.50
2023-01-20T11:40:05.698Z,98888.75
2023-01-20T11:42:50.168Z,98879.75
2023-01-20T11:45:38.992Z,98874.47
2023-01-20T11:48:18.921Z,98880.94
2023-01-20T11:50:59.269Z,98872.88
2023-01-20T11:53:37.766Z,98875.53
2023-01-20T11:56:29.755Z,98885.66
2023-01-20T11:59:06.497Z,98874.97
2023-01-20T12:01:57.918Z,98878.56
2023-01-20T12:04:59.116Z,98871.34
2023-01-20T12:07:32.528Z,98871.28
2023-01-20T12:10:27.621Z,98871.59
2023-01-20T12:13:26.854Z,98879.03
2023-01-20T12:16:09.504Z,98862.09
2023-01-20T12:19:02.073Z,98868.50
2023-01-20T12:21:51.929Z,98874.53
2023-01-20T12:25:12.040Z,98878.50
2023-01-20T12:28:24.204Z,98873.00
2023-01-20T12:31:08.479Z,98878.72
2023-01-20T12:33:54.430Z,98878.94
2023-01-20T12:37:02.235Z,98881.22
2023-01-20T12:40:08.079Z,98875.88
2023-01-20T12:43:19.191Z,98883.38
2023-01-20T12:46:28.357Z,98875.41
2023-01-20T12:49:28.317Z,98867.41
2023-01-20T12:52:01.112Z,98866.97
2023-01-20T12:55:12.547Z,98869.78
2023-01-20T12:58:00.439Z,98872.22
2023-01-20T13:01:18.979Z,98865.78
2023-01-20T13:04:09.433Z,98864.53
2023-01-20T13:07:04.721Z,98870.19
2023-01-20T13:10:07.533Z,98876.53
2023-01-20T13:13:01.955Z,98882.81
2023-01-20T13:15:46.050Z,98883.38
2023-01-20T13:18:43.485Z,98877.13
2023-01-20T13:21:21.558Z,98878.53
2023-01-20T13:24:08.933Z,98872.38
2023-01-20T13:26:45.000Z,98880.34
2023-01-20T13:29:50.915Z,98879.59
2023-01-20T13:32:48.896Z,98881.16
2023-01-20T13:35:32.538Z,98883.47
2023-01-20T13:38:08.954Z,98883.31
2023-01-20T13:40:54.870Z,98882.44
2023-01-20T13:43:52.560Z,98878.31
2023-01-20T13:46:29.169Z,98877.41
2023-01-20T13:49:32.297Z,98881.66
2023-01-20T13:52:17.437Z,98886.50
2023-01-20T13:54:57.804Z,98885.41
2023-01-20T13:57:34.207Z,98881.97
2023-01-20T14:00:24.076Z,98883.94
2023-01-20T14:03:18.278Z,98888.91
2023-01-20T14:06:08.440Z,98889.41
2023-01-20T14:08:45.951Z,98894.34
2023-01-20T14:11:30.420Z,98897.28
2023-01-20T14:14:01.986Z,98904.72
2023-01-20T14:16:45.019Z,98902.72
2023-01-20T14:19:30.026Z,98909.06
2023-01-20T14:22:19.782Z,98906.38
2023-01-20T14:24:57.464Z,98911.16
2023-01-20T14:27:44.629Z,98907.44
2023-01-20T14:30:23.760Z,98903.69
2023-01-20T14:33:02.192Z,98906.06
2023-01-20T14:35:39.487Z,98907.56
2023-01-20T14:38:30.019Z,98895.53
2023-01-20T14:41:04.916Z,98897.13
2023-01-20T14:43:48.023Z,98896.84
2023-01-20T14:46:29.453Z,98900.53
2023-01-20T14:49:16.429Z,98910.00
2023-01-20T14:51:57.729Z,98912.41
2023-01-20T14:54:52.160Z,98918.78
2023-01-20T14:57:32.673Z,98916.13
2023-01-20T15:00:22.475Z,98917.44
2023-01-20T15:03:11.256Z,98911.75
2023-01-20T15:06:16.732Z,98907.88
2023-01-20T15:09:06.250Z,98911.91
2023-01-20T15:11:46.058Z,98911.38
2023-01-20T15:14:24.803Z,98905.03
2023-01-20T15:17:28.064Z,98909.50
2023-01-20T15:20:08.695Z,98916.88
2023-01-20T15:22:51.321Z,98913.47
2023-01-20T15:25:32.805Z,98919.81
2023-01-20T15:28:43.948Z,98923.03
2023-01-20T15:31:23.247Z,98928.28
2023-01-20T15:34:09.313Z,98927.97
2023-01-20T15:36:45.608Z,98931.28
2023-01-20T15:39:33.310Z,98931.59
2023-01-20T15:42:25.488Z,98936.25
2023-01-20T15:45:07.462Z,98933.22
2023-01-20T15:47:45.865Z,98936.63
2023-01-20T15:50:37.631Z,98930.88
2023-01-20T15:53:21.022Z,98935.94
2023-01-20T15:56:03.907Z,98943.56
2023-01-20T15:58:39.530Z,98940.75
2023-01-20T16:01:18.762Z,98938.72
2023-01-20T16:04:02.927Z,98935.53
2023-01-20T16:06:48.255Z,98934.47
2023-01-20T16:09:46.365Z,98940.38
2023-01-20T16:12:18.630Z,98951.72
2023-01-20T16:15:09.514Z,98952.72
2023-01-20T16:17:45.084Z,98962.13
2023-01-20T16:20:31.217Z,98958.00
2023-01-20T16:23:05.709Z,98962.25
2023-01-20T16:25:39.079Z,98968.56
2023-01-20T16:28:24.560Z,98967.06
2023-01-20T16:31:02.490Z,98970.34
2023-01-20T16:33:39.831Z,98966.78
2023-01-20T16:36:26.737Z,98957.09
2023-01-20T16:39:02.120Z,98960.00
2023-01-20T16:41:50.017Z,98964.19
2023-01-20T16:44:30.650Z,98971.59
2023-01-20T16:47:12.949Z,98963.78
2023-01-20T16:50:00.099Z,98964.06
2023-01-20T16:52:33.158Z,98973.09
2023-01-20T16:55:13.589Z,98963.19
2023-01-20T16:57:48.407Z,98968.47
2023-01-20T17:00:26.531Z,98966.28
2023-01-20T17:03:06.550Z,98967.09
2023-01-20T17:05:45.482Z,98966.16
2023-01-20T17:08:18.649Z,98964.84
2023-01-20T17:11:03.284Z,98963.53
2023-01-20T17:13:46.303Z,98963.38
2023-01-20T17:16:24.529Z,98952.56
2023-01-20T17:19:05.166Z,98960.31
2023-01-20T17:21:44.308Z,98961.63
2023-01-20T17:24:24.423Z,98957.13
2023-01-20T17:26:58.712Z,98964.28
2023-01-20T17:29:36.928Z,98961.13
2023-01-20T17:32:16.951Z,98953.97
2023-01-20T17:34:53.911Z,98947.59
2023-01-20T17:37:29.460Z,98954.69
2023-01-20T17:40:11.310Z,98953.81
2023-01-20T17:42:46.827Z,98953.50
2023-01-20T17:45:22.105Z,98955.72
2023-01-20T17:48:04.605Z,98962.44
2023-01-20T17:50:37.956Z,98962.16
2023-01-20T17:53:13.016Z,98959.53
2023-01-20T17:56:10.885Z,98961.13
2023-01-20T17:58:52.116Z,98970.25
2023-01-20T18:01:34.870Z,98969.09
2023-01-20T18:04:14.269Z,98967.19
2023-01-20T18:06:59.693Z,98971.56
2023-01-20T18:09:35.292Z,98961.38
2023-01-20T18:12:16.171Z,98971.34
2023-01-20T18:15:00.125Z,98970.97
2023-01-20T18:17:35.638Z,98971.75
2023-01-20T18:20:19.514Z,98961.56
2023-01-20T18:22:52.419Z,98962.25
2023-01-20T18:25:24.366Z,98953.59
2023-01-20T18:28:13.410Z,98952.47
2023-01-20T18:30:44.350Z,98950.06
2023-01-20T18:33:23.446Z,98942.63
2023-01-20T18:35:58.243Z,98945.88
2023-01-20T18:38:36.722Z,98944.59
2023-01-20T18:41:12.633Z,98940.03
2023-01-20T18:43:50.294Z,98932.13
2023-01-20T18:46:23.004Z,98931.63
2023-01-20T18:49:01.553Z,98926.78
2023-01-20T18:51:38.900Z,98931.09
2023-01-20T18:54:14.469Z,98931.22
2023-01-20T18:56:50.445Z,98931.88
2023-01-20T18:59:23.693Z,98929.75
2023-01-20T19:01:59.473Z,98934.63
2023-01-20T19:04:38.763Z,98931.16
2023-01-20T19:07:18.960Z,98922.16
2023-01-20T19:09:54.789Z,98911.50
2023-01-20T19:12:31.619Z,98915.66
2023-01-20T19:15:17.917Z,98915.38
2023-01-20T19:17:54.062Z,98931.41
2023-01-20T19:20:40.565Z,98927.44
2023-01-20T19:23:18.907Z,98935.28
2023-01-20T19:25:59.386Z,98936.41
2023-01-20T19:28:39.871Z,98939.88
2023-01-20T19:31:12.960Z,98954.22
2023-01-20T19:33:55.181Z,98961.31
2023-01-20T19:36:38.050Z,98959.41
2023-01-20T19:39:17.235Z,98968.84
2023-01-20T19:41:55.153Z,98969.06
2023-01-20T19:44:33.270Z,98967.28
2023-01-20T19:47:14.633Z,98979.19
2023-01-20T19:49:53.404Z,98976.44
2023-01-20T19:52:33.231Z,98969.66
2023-01-20T19:55:12.764Z,98973.84
2023-01-20T19:57:45.635Z,98969.06
2023-01-20T20:00:21.738Z,98960.94
2023-01-20T20:02:55.817Z,98959.91
2023-01-20T20:05:33.597Z,98963.38
2023-01-20T20:08:11.743Z,98971.06
2023-01-20T20:10:48.357Z,98968.63
2023-01-20T20:13:31.067Z,98973.25
2023-01-20T20:16:08.308Z,98972.53
2023-01-20T20:18:42.997Z,98978.88
2023-01-20T20:21:27.775Z,98983.53
2023-01-20T20:24:07.056Z,98973.25
2023-01-20T20:26:47.566Z,98974.53
2023-01-20T20:29:35.207Z,98975.63
2023-01-20T20:32:20.607Z,98982.44
2023-01-20T20:34:58.708Z,98984.19
2023-01-20T20:37:40.262Z,98983.34
2023-01-20T20:40:13.970Z,98987.25
2023-01-20T20:42:54.618Z,98986.13
2023-01-20T20:45:36.415Z,98980.22
2023-01-20T20:48:11.967Z,98998.66
2023-01-20T20:50:49.617Z,99000.78
2023-01-20T20:53:32.721Z,99012.78
2023-01-20T20:56:15.818Z,99012.75
2023-01-20T20:59:02.329Z,99006.38
2023-01-20T21:01:43.550Z,99011.69
2023-01-20T21:04:21.962Z,99019.69
2023-01-20T21:06:57.645Z,99031.06
2023-01-20T21:09:38.319Z,99024.13
2023-01-20T21:12:20.422Z,99029.44
2023-01-20T21:15:01.204Z,99032.25
2023-01-20T21:17:42.052Z,99034.16
2023-01-20T21:20:21.794Z,99031.97
2023-01-20T21:23:02.581Z,99033.66
2023-01-20T21:25:51.984Z,99030.31
2023-01-20T21:28:27.365Z,99035.13
2023-01-20T21:31:02.684Z,99029.81
2023-01-20T21:33:40.440Z,99038.53
2023-01-20T21:36:22.022Z,99046.69
2023-01-20T21:39:05.939Z,99053.84
2023-01-20T21:41:40.930Z,99045.03
2023-01-20T21:44:36.386Z,99051.06
2023-01-20T21:47:14.688Z,99057.91
2023-01-20T21:50:16.198Z,99061.22
2023-01-20T21:52:56.308Z,99066.06
2023-01-20T21:55:33.790Z,99063.59
2023-01-20T21:58:14.271Z,99074.69
2023-01-20T22:00:49.597Z,99081.53
2023-01-20T22:03:28.544Z,99074.22
2023-01-20T22:06:20.097Z,99075.88
2023-01-20T22:09:03.563Z,99084.91
2023-01-20T22:11:44.681Z,99085.16
2023-01-20T22:14:22.512Z,99081.81
2023-01-20T22:17:00.413Z,99079.69
2023-01-20T22:19:38.552Z,99082.38
2023-01-20T22:22:24.832Z,99088.19
2023-01-20T22:25:04.887Z,99087.63
2023-01-20T22:27:48.538Z,99089.75
2023-01-20T22:30:23.739Z,99090.44
2023-01-20T22:32:58.969Z,99090.28
2023-01-20T22:35:33.591Z,99091.00
2023-01-20T22:38:14.843Z,99102.00
2023-01-20T22:40:58.129Z,99093.25
2023-01-20T22:43:38.815Z,99082.97
2023-01-20T22:46:20.769Z,99089.97
2023-01-20T22:49:05.377Z,99091.16
2023-01-20T22:51:57.360Z,99101.63
2023-01-20T22:54:39.774Z,99102.88
2023-01-20T22:57:24.488Z,99100.91
2023-01-20T23:00:04.642Z,99098.88
2023-01-20T23:02:41.639Z,99094.75
2023-01-20T23:05:21.730Z,99093.91
2023-01-20T23:07:56.744Z,99091.09
2023-01-20T23:10:46.995Z,99101.84
2023-01-20T23:13:29.036Z,99103.25
2023-01-20T23:16:10.063Z,99095.25
2023-01-20T23:18:45.804Z,99106.53
2023-01-20T23:21:29.274Z,99105.53
2023-01-20T23:24:10.876Z,99095.25
2023-01-20T23:26:49.199Z,99096.22
2023-01-20T23:29:29.799Z,99102.56
2023-01-20T23:32:10.380Z,99109.19
2023-01-20T23:34:54.641Z,99104.75
2023-01-20T23:37:33.462Z,99106.22
2023-01-20T23:40:17.033Z,99104.28
2023-01-20T23:42:50.290Z,99111.06
2023-01-20T23:45:28.990Z,99113.03
2023-01-20T23:48:07.339Z,99109.88
2023-01-20T23:50:45.905Z,99111.91
2023-01-20T23:53:24.154Z,99124.84
2023-01-20T23:56:16.719Z,99124.00
2023-01-20T23:58:52.831Z,99132.91
